Time;durP1;ratioP1;P1;durP2;ratioP2;P2;SDS_P1;SDS_P2;PMS_P1;PMS_P2;Temp;Humidity;BMP_temperature;BMP_pressure;BME280_temperature;BME280_humidity;BME280_pressure;Samples;Min_cycle;Max_cycle;Signal;HPM_P1;HPM_P2
2024/02/01 00:00:41;;;;;;;29.23;19.80;;;;;;;;;;5073186;28;20103;-77
2024/02/01 00:03:07;;;;;;;34.35;21.67;;;;;;;;;;5073383;28;20036;-77
2024/02/01 00:05:33;;;;;;;26.77;17.02;;;;;;;;;;5073372;28;20051;-77
2024/02/01 00:07:59;;;;;;;36.88;21.55;;;;;;;;;;5073252;28;20032;-77
2024/02/01 00:10:25;;;;;;;34.67;21.90;;;;;;;;;;5074292;28;20066;-78
2024/02/01 00:12:51;;;;;;;32.05;21.52;;;;;;;;;;5073087;28;20502;-77
2024/02/01 00:15:17;;;;;;;35.53;20.13;;;;;;;;;;5073052;28;20090;-76
2024/02/01 00:17:43;;;;;;;32.15;21.60;;;;;;;;;;5072959;28;20136;-77
2024/02/01 00:20:09;;;;;;;43.75;24.83;;;;;;;;;;5073362;28;20029;-76
2024/02/01 00:22:35;;;;;;;36.45;24.20;;;;;;;;;;5072606;28;20476;-77
2024/02/01 00:25:02;;;;;;;36.95;23.48;;;;;;;;;;5073385;28;20024;-77
2024/02/01 00:27:28;;;;;;;39.67;24.98;;;;;;;;;;5073059;28;20024;-77
2024/02/01 00:29:54;;;;;;;40.50;25.92;;;;;;;;;;5073175;28;20024;-77
2024/02/01 00:32:20;;;;;;;32.22;20.02;;;;;;;;;;5073006;28;20052;-78
2024/02/01 00:34:46;;;;;;;47.22;26.50;;;;;;;;;;5073158;28;20056;-78
2024/02/01 00:37:12;;;;;;;40.83;22.40;;;;;;;;;;5074743;28;20051;-78
2024/02/01 00:39:38;;;;;;;40.10;25.60;;;;;;;;;;5073266;28;20035;-77
2024/02/01 00:42:04;;;;;;;45.05;24.98;;;;;;;;;;5073080;28;20021;-78
2024/02/01 00:44:30;;;;;;;35.17;22.77;;;;;;;;;;5072696;28;20036;-77
2024/02/01 00:46:57;;;;;;;38.88;22.30;;;;;;;;;;5073436;28;20025;-77
2024/02/01 00:49:23;;;;;;;38.15;22.75;;;;;;;;;;5073103;28;20050;-77
2024/02/01 00:51:49;;;;;;;32.25;22.33;;;;;;;;;;5072830;28;20025;-77
2024/02/01 00:54:15;;;;;;;41.58;23.35;;;;;;;;;;5072441;28;20021;-77
2024/02/01 00:56:41;;;;;;;30.58;17.88;;;;;;;;;;5072604;28;20464;-78
2024/02/01 00:59:07;;;;;;;36.90;22.98;;;;;;;;;;5074118;28;20502;-77
2024/02/01 01:01:33;;;;;;;30.60;20.08;;;;;;;;;;5072220;28;20028;-77
2024/02/01 01:03:59;;;;;;;38.35;23.73;;;;;;;;;;5072681;28;20035;-77
2024/02/01 01:06:25;;;;;;;38.70;23.70;;;;;;;;;;5071991;28;20079;-77
2024/02/01 01:08:51;;;;;;;34.60;22.65;;;;;;;;;;5072305;28;20128;-77
2024/02/01 01:11:17;;;;;;;34.72;21.85;;;;;;;;;;5072248;28;20031;-77
2024/02/01 01:13:43;;;;;;;36.92;21.27;;;;;;;;;;5072738;28;20044;-77
2024/02/01 01:16:09;;;;;;;41.30;25.83;;;;;;;;;;5071798;28;20032;-78
2024/02/01 01:18:35;;;;;;;33.95;18.98;;;;;;;;;;5072797;28;20016;-76
2024/02/01 01:21:01;;;;;;;26.63;18.25;;;;;;;;;;5071689;28;20094;-77
2024/02/01 01:23:27;;;;;;;32.85;20.17;;;;;;;;;;5072526;28;20048;-77
2024/02/01 01:25:53;;;;;;;36.20;22.98;;;;;;;;;;5071632;28;20078;-77
2024/02/01 01:28:19;;;;;;;27.45;18.17;;;;;;;;;;5071629;28;20024;-77
2024/02/01 01:30:45;;;;;;;40.20;25.05;;;;;;;;;;5071291;28;20024;-76
2024/02/01 01:33:11;;;;;;;34.67;21.88;;;;;;;;;;5071494;28;20383;-75
2024/02/01 01:35:37;;;;;;;35.72;22.77;;;;;;;;;;5071167;28;20032;-76
2024/02/01 01:38:03;;;;;;;31.67;20.75;;;;;;;;;;5071462;28;20468;-76
2024/02/01 01:40:29;;;;;;;34.50;22.15;;;;;;;;;;5071181;28;20040;-76
2024/02/01 01:42:56;;;;;;;38.10;24.63;;;;;;;;;;5071372;28;20016;-76
2024/02/01 01:45:22;;;;;;;39.40;24.48;;;;;;;;;;5071312;28;20040;-77
2024/02/01 01:47:48;;;;;;;38.35;24.63;;;;;;;;;;5071085;28;20473;-77
2024/02/01 01:50:14;;;;;;;44.85;27.33;;;;;;;;;;5071292;28;20469;-77
2024/02/01 01:52:41;;;;;;;33.92;23.27;;;;;;;;;;5070971;28;20376;-77
2024/02/01 01:55:08;;;;;;;37.10;24.15;;;;;;;;;;5071139;28;20120;-77
2024/02/01 01:57:34;;;;;;;37.28;25.27;;;;;;;;;;5070957;28;20492;-77
2024/02/01 02:00:01;;;;;;;32.05;21.60;;;;;;;;;;5071222;28;20146;-77
2024/02/01 02:02:28;;;;;;;38.17;25.02;;;;;;;;;;5071465;28;20070;-77
2024/02/01 02:04:55;;;;;;;37.70;23.65;;;;;;;;;;5071488;28;20036;-76
2024/02/01 02:07:21;;;;;;;35.20;22.65;;;;;;;;;;5071321;28;20347;-76
2024/02/01 02:09:47;;;;;;;33.45;23.88;;;;;;;;;;5070829;28;20024;-77
2024/02/01 02:12:13;;;;;;;30.10;22.08;;;;;;;;;;5070934;28;20232;-77
2024/02/01 02:14:39;;;;;;;32.70;21.63;;;;;;;;;;5070678;28;20629;-77
2024/02/01 02:17:05;;;;;;;35.20;21.42;;;;;;;;;;5071071;28;20017;-78
2024/02/01 02:19:31;;;;;;;30.45;19.70;;;;;;;;;;5070726;28;20116;-78
2024/02/01 02:21:57;;;;;;;24.42;16.85;;;;;;;;;;5070841;28;20059;-77
2024/02/01 02:24:24;;;;;;;33.83;21.58;;;;;;;;;;5071883;28;20484;-77
2024/02/01 02:26:50;;;;;;;26.30;18.25;;;;;;;;;;5070621;28;20063;-77
2024/02/01 02:29:17;;;;;;;22.25;14.60;;;;;;;;;;5070265;28;20017;-77
2024/02/01 02:31:43;;;;;;;28.17;19.15;;;;;;;;;;5071908;28;20425;-77
2024/02/01 02:34:09;;;;;;;24.05;17.08;;;;;;;;;;5070776;28;20380;-77
2024/02/01 02:36:37;;;;;;;24.83;17.20;;;;;;;;;;5070392;28;20036;-76
2024/02/01 02:39:03;;;;;;;27.15;17.25;;;;;;;;;;5072362;28;20021;-77
2024/02/01 02:41:29;;;;;;;29.27;17.58;;;;;;;;;;5070757;28;20021;-77
2024/02/01 02:43:55;;;;;;;34.88;21.92;;;;;;;;;;5071598;28;20392;-77
2024/02/01 02:46:23;;;;;;;30.60;19.52;;;;;;;;;;5070659;28;20025;-76
2024/02/01 02:48:49;;;;;;;31.13;19.63;;;;;;;;;;5070366;28;20020;-77
2024/02/01 02:51:16;;;;;;;28.02;18.63;;;;;;;;;;5070718;28;20078;-77
2024/02/01 02:53:42;;;;;;;36.17;21.80;;;;;;;;;;5070361;28;20020;-76
2024/02/01 02:56:08;;;;;;;26.50;15.50;;;;;;;;;;5070541;28;20032;-76
2024/02/01 02:58:35;;;;;;;40.08;20.25;;;;;;;;;;5071667;28;20021;-76
2024/02/01 03:01:05;;;;;;;35.60;19.38;;;;;;;;;;5070612;28;20031;-77
2024/02/01 03:03:31;;;;;;;;;;;;;;;;;;5070911;28;20028;-77
2024/02/01 03:05:57;;;;;;;30.02;15.25;;;;;;;;;;5070298;28;19916;-78
2024/02/01 03:08:23;;;;;;;30.17;15.70;;;;;;;;;;5070609;28;20020;-77
2024/02/01 03:10:50;;;;;;;34.42;16.38;;;;;;;;;;5070305;28;20070;-77
2024/02/01 03:13:16;;;;;;;30.33;14.40;;;;;;;;;;5070183;28;20060;-77
2024/02/01 03:15:42;;;;;;;28.92;12.70;;;;;;;;;;5071463;28;20047;-77
2024/02/01 03:18:10;;;;;;;34.60;15.60;;;;;;;;;;5071460;28;20024;-77
2024/02/01 03:20:36;;;;;;;39.83;15.98;;;;;;;;;;5070110;28;20541;-76
2024/02/01 03:23:05;;;;;;;27.42;11.40;;;;;;;;;;5070283;28;20048;-76
2024/02/01 03:25:32;;;;;;;33.40;11.32;;;;;;;;;;5070441;28;20028;-75
2024/02/01 03:28:04;;;;;;;42.33;15.40;;;;;;;;;;5072414;28;20029;-75
2024/02/01 03:30:30;;;;;;;18.92;6.45;;;;;;;;;;5070983;28;20021;-75
2024/02/01 03:32:57;;;;;;;25.65;8.43;;;;;;;;;;5070065;28;20119;-75
2024/02/01 03:35:23;;;;;;;25.13;9.02;;;;;;;;;;5071489;28;20087;-76
2024/02/01 03:37:49;;;;;;;21.35;7.32;;;;;;;;;;5069859;28;20043;-76
2024/02/01 03:40:18;;;;;;;22.20;6.97;;;;;;;;;;5070197;28;20040;-76
2024/02/01 03:42:45;;;;;;;20.30;5.90;;;;;;;;;;5074299;28;20021;-76
2024/02/01 03:45:11;;;;;;;15.80;4.32;;;;;;;;;;5073541;28;20032;-76
2024/02/01 03:47:38;;;;;;;17.10;3.35;;;;;;;;;;5073354;28;20027;-76
2024/02/01 03:50:08;;;;;;;20.60;4.95;;;;;;;;;;5073576;28;20017;-77
2024/02/01 03:52:34;;;;;;;9.10;2.75;;;;;;;;;;5073524;28;20024;-77
2024/02/01 03:55:00;;;;;;;28.35;4.63;;;;;;;;;;5073418;28;20029;-78
2024/02/01 03:57:26;;;;;;;27.00;4.75;;;;;;;;;;5073536;28;20032;-78
2024/02/01 03:59:53;;;;;;;21.77;4.20;;;;;;;;;;5073093;28;20384;-76
2024/02/01 04:02:19;;;;;;;19.90;3.85;;;;;;;;;;5073341;28;20540;-77
2024/02/01 04:04:45;;;;;;;17.48;3.60;;;;;;;;;;5073056;28;20223;-76
2024/02/01 04:07:18;;;;;;;19.65;4.75;;;;;;;;;;5072988;28;20048;-77
2024/02/01 04:09:45;;;;;;;19.77;3.67;;;;;;;;;;5072975;28;20036;-77
2024/02/01 04:12:11;;;;;;;18.58;4.60;;;;;;;;;;5073238;28;20521;-77
2024/02/01 04:14:37;;;;;;;17.33;4.40;;;;;;;;;;5072799;28;20107;-78
2024/02/01 04:17:03;;;;;;;28.58;4.80;;;;;;;;;;5073024;28;20078;-77
2024/02/01 04:19:29;;;;;;;23.80;4.05;;;;;;;;;;5073057;28;20094;-76
2024/02/01 04:21:55;;;;;;;21.55;4.03;;;;;;;;;;5072558;28;20020;-76
2024/02/01 04:24:21;;;;;;;24.63;3.83;;;;;;;;;;5072917;28;20032;-77
2024/02/01 04:26:48;;;;;;;16.45;3.25;;;;;;;;;;5074233;28;20391;-76
2024/02/01 04:29:14;;;;;;;13.75;3.03;;;;;;;;;;5072819;28;20093;-76
2024/02/01 04:31:40;;;;;;;24.80;4.40;;;;;;;;;;5072593;28;20525;-77
2024/02/01 04:34:07;;;;;;;20.77;4.05;;;;;;;;;;5072727;28;20021;-77
2024/02/01 04:36:33;;;;;;;21.27;3.58;;;;;;;;;;5072572;28;20021;-77
2024/02/01 04:39:03;;;;;;;20.95;4.78;;;;;;;;;;5072400;28;20029;-76
2024/02/01 04:41:30;;;;;;;14.65;3.45;;;;;;;;;;5072749;28;20488;-76
2024/02/01 04:43:56;;;;;;;14.82;2.67;;;;;;;;;;5072389;28;20464;-76
2024/02/01 04:46:24;;;;;;;34.75;4.43;;;;;;;;;;5072444;28;20056;-76
2024/02/01 04:48:51;;;;;;;20.08;3.40;;;;;;;;;;5072198;28;20569;-77
2024/02/01 04:51:17;;;;;;;20.95;3.42;;;;;;;;;;5072317;28;20020;-76
2024/02/01 04:53:43;;;;;;;19.55;3.80;;;;;;;;;;5071652;28;20427;-77
2024/02/01 04:56:08;;;;;;;25.15;3.80;;;;;;;;;;5072326;28;20032;-77
2024/02/01 04:58:34;;;;;;;28.20;4.50;;;;;;;;;;5073629;28;20027;-78
2024/02/01 05:01:09;;;;;;;24.88;4.75;;;;;;;;;;5071953;28;20384;-77
2024/02/01 05:03:35;;;;;;;22.20;4.38;;;;;;;;;;5072189;28;20016;-78
2024/02/01 05:06:07;;;;;;;24.42;4.25;;;;;;;;;;5071686;28;20534;-77
2024/02/01 05:08:34;;;;;;;21.20;4.32;;;;;;;;;;5072030;28;20021;-77
2024/02/01 05:11:00;;;;;;;26.13;3.70;;;;;;;;;;5071729;28;20028;-77
2024/02/01 05:13:30;;;;;;;23.23;4.63;;;;;;;;;;5073109;28;20407;-77
2024/02/01 05:15:57;;;;;;;22.02;4.32;;;;;;;;;;5071439;28;20067;-77
2024/02/01 05:18:23;;;;;;;21.92;4.13;;;;;;;;;;5071872;28;20020;-77
2024/02/01 05:20:50;;;;;;;24.65;4.90;;;;;;;;;;5071224;28;20111;-77
2024/02/01 05:23:16;;;;;;;24.45;3.67;;;;;;;;;;5071763;28;20025;-78
2024/02/01 05:25:42;;;;;;;18.25;4.28;;;;;;;;;;5071508;28;20020;-77
2024/02/01 05:28:09;;;;;;;24.25;3.67;;;;;;;;;;5071561;28;20472;-77
2024/02/01 05:30:36;;;;;;;26.45;4.35;;;;;;;;;;5072653;28;20025;-76
2024/02/01 05:33:02;;;;;;;24.08;3.88;;;;;;;;;;5071276;28;20032;-77
2024/02/01 05:35:29;;;;;;;25.38;4.45;;;;;;;;;;5072707;28;20033;-77
2024/02/01 05:37:56;;;;;;;23.17;4.57;;;;;;;;;;5071417;28;20074;-76
2024/02/01 05:40:23;;;;;;;27.20;4.50;;;;;;;;;;5071836;28;20032;-76
2024/02/01 05:42:49;;;;;;;36.40;5.47;;;;;;;;;;5072012;28;20021;-75
2024/02/01 05:45:16;;;;;;;33.90;4.53;;;;;;;;;;5073563;28;20383;-75
2024/02/01 05:47:42;;;;;;;22.23;4.45;;;;;;;;;;5072303;28;20028;-75
2024/02/01 05:50:10;;;;;;;31.08;4.18;;;;;;;;;;5072041;28;20116;-76
2024/02/01 05:52:36;;;;;;;23.52;4.13;;;;;;;;;;5072541;28;20381;-76
2024/02/01 05:55:05;;;;;;;32.22;5.22;;;;;;;;;;5072165;28;20140;-76
2024/02/01 05:57:31;;;;;;;21.55;3.45;;;;;;;;;;5071091;28;20032;-76
2024/02/01 05:59:57;;;;;;;19.02;3.88;;;;;;;;;;5070909;28;20028;-75
2024/02/01 06:02:25;;;;;;;27.20;4.35;;;;;;;;;;5071079;28;20024;-75
2024/02/01 06:04:51;;;;;;;24.88;4.60;;;;;;;;;;5071378;28;20024;-78
2024/02/01 06:07:17;;;;;;;20.13;3.30;;;;;;;;;;5070848;28;20102;-77
2024/02/01 06:09:43;;;;;;;22.00;3.92;;;;;;;;;;5070785;28;20479;-77
2024/02/01 06:12:09;;;;;;;33.72;3.83;;;;;;;;;;5071017;28;20070;-78
2024/02/01 06:14:36;;;;;;;26.85;5.70;;;;;;;;;;5070878;28;20419;-77
2024/02/01 06:17:02;;;;;;;31.58;5.32;;;;;;;;;;5070672;28;20104;-77
2024/02/01 06:19:28;;;;;;;19.50;5.95;;;;;;;;;;5070979;28;20033;-77
2024/02/01 06:21:54;;;;;;;30.13;6.22;;;;;;;;;;5071628;28;20122;-77
2024/02/01 06:24:21;;;;;;;21.98;6.57;;;;;;;;;;5070909;28;20016;-77
2024/02/01 06:26:47;;;;;;;29.77;6.40;;;;;;;;;;5070350;28;20112;-77
2024/02/01 06:29:13;;;;;;;34.83;6.85;;;;;;;;;;5070731;28;20021;-76
2024/02/01 06:31:40;;;;;;;28.23;6.20;;;;;;;;;;5070758;28;20024;-77
2024/02/01 06:34:08;;;;;;;29.75;5.75;;;;;;;;;;5070598;28;20051;-77
2024/02/01 06:36:38;;;;;;;23.20;5.50;;;;;;;;;;5070746;28;20032;-76
2024/02/01 06:44:24;;;;;;;21.77;4.30;;;;;;;;;;5071800;28;20403;-78
2024/02/01 06:52:13;;;;;;;33.42;4.20;;;;;;;;;;5071846;28;20530;-78
2024/02/01 06:55:06;;;;;;;31.15;5.28;;;;;;;;;;5071582;28;20043;-77
2024/02/01 06:57:47;;;;;;;31.05;5.40;;;;;;;;;;5071666;28;20024;-77
2024/02/01 07:03:02;;;;;;;27.58;5.20;;;;;;;;;;5071589;28;20044;-75
2024/02/01 07:08:14;;;;;;;25.73;6.32;;;;;;;;;;5071373;28;20091;-75
2024/02/01 07:10:43;;;;;;;27.27;4.78;;;;;;;;;;5071378;28;20052;-76
2024/02/01 07:13:34;;;;;;;23.08;5.70;;;;;;;;;;5070114;28;20473;-76
2024/02/01 07:16:13;;;;;;;20.80;4.50;;;;;;;;;;5072042;28;20037;-76
2024/02/01 07:18:43;;;;;;;25.13;4.78;;;;;;;;;;5074208;28;20048;-76
2024/02/01 07:21:29;;;;;;;26.02;5.28;;;;;;;;;;5074959;28;20036;-76
2024/02/01 07:24:17;;;;;;;28.85;5.97;;;;;;;;;;5074940;28;20025;-76
2024/02/01 07:26:54;;;;;;;32.58;5.90;;;;;;;;;;5074026;28;20029;-77
2024/02/01 07:59:38;;;;;;;20.45;4.65;;;;;;;;;;5069253;28;20047;-79
2024/02/01 08:02:34;;;;;;;28.25;3.88;;;;;;;;;;5059598;28;20108;-80
2024/02/01 08:07:44;;;;;;;32.25;6.28;;;;;;;;;;5072890;28;20170;-79
2024/02/01 08:10:11;;;;;;;26.67;5.22;;;;;;;;;;5058876;28;20021;-80
2024/02/01 08:12:37;;;;;;;26.80;5.47;;;;;;;;;;5058153;28;20021;-80
2024/02/01 08:15:03;;;;;;;30.88;6.93;;;;;;;;;;5053003;28;20048;-81
2024/02/01 08:17:29;;;;;;;30.45;5.35;;;;;;;;;;5053221;28;20107;-81
2024/02/01 08:19:55;;;;;;;22.05;4.72;;;;;;;;;;5052976;28;20013;-80
2024/02/01 08:22:21;;;;;;;22.65;5.63;;;;;;;;;;5052908;28;20025;-80
2024/02/01 08:24:54;;;;;;;20.02;4.65;;;;;;;;;;5052919;28;20424;-80
2024/02/01 08:27:20;;;;;;;22.67;5.57;;;;;;;;;;5051895;28;20025;-80
2024/02/01 08:29:47;;;;;;;23.23;4.70;;;;;;;;;;5052466;28;20461;-82
2024/02/01 08:32:19;;;;;;;29.95;5.18;;;;;;;;;;5052430;28;20463;-80
2024/02/01 08:34:45;;;;;;;26.45;4.70;;;;;;;;;;5052589;28;20021;-79
2024/02/01 08:37:11;;;;;;;22.77;3.97;;;;;;;;;;5052706;28;20032;-80
2024/02/01 08:39:44;;;;;;;17.27;4.78;;;;;;;;;;5052556;28;20036;-80
2024/02/01 08:42:12;;;;;;;21.65;4.55;;;;;;;;;;5052642;28;20025;-80
2024/02/01 08:44:38;;;;;;;26.00;5.32;;;;;;;;;;5052780;28;20040;-80
2024/02/01 08:47:04;;;;;;;23.63;4.13;;;;;;;;;;5054107;28;20021;-79
2024/02/01 08:49:38;;;;;;;25.58;5.68;;;;;;;;;;5054038;28;20021;-80
2024/02/01 08:52:05;;;;;;;23.73;5.10;;;;;;;;;;5052326;28;20084;-80
2024/02/01 08:54:31;;;;;;;27.20;5.13;;;;;;;;;;5052357;28;20048;-80
2024/02/01 08:56:57;;;;;;;22.92;5.88;;;;;;;;;;5052037;28;20408;-80
2024/02/01 08:59:23;;;;;;;18.08;4.15;;;;;;;;;;5053390;28;20032;-80
2024/02/01 09:01:49;;;;;;;22.50;5.28;;;;;;;;;;5052115;28;20029;-80
2024/02/01 09:04:15;;;;;;;28.05;5.60;;;;;;;;;;5051973;28;20044;-81
2024/02/01 09:06:53;;;;;;;28.95;4.88;;;;;;;;;;5052044;28;20049;-81
2024/02/01 09:09:28;;;;;;;25.55;5.20;;;;;;;;;;5051930;28;20211;-81
2024/02/01 09:11:54;;;;;;;19.00;4.20;;;;;;;;;;5052151;28;20024;-80
2024/02/01 09:14:20;;;;;;;17.58;3.65;;;;;;;;;;5051931;28;20365;-79
2024/02/01 09:16:46;;;;;;;20.25;5.05;;;;;;;;;;5051726;28;20473;-80
2024/02/01 09:19:14;;;;;;;20.38;5.38;;;;;;;;;;5051676;28;20036;-80
2024/02/01 09:21:40;;;;;;;23.58;4.78;;;;;;;;;;5051647;28;20032;-80
2024/02/01 09:24:07;;;;;;;21.90;5.20;;;;;;;;;;5051730;28;20153;-80
2024/02/01 09:26:33;;;;;;;24.58;6.10;;;;;;;;;;5052984;28;20024;-81
2024/02/01 09:29:00;;;;;;;22.02;3.97;;;;;;;;;;5052869;28;20346;-80
2024/02/01 09:31:26;;;;;;;22.92;4.68;;;;;;;;;;5051799;28;20116;-80
2024/02/01 09:33:52;;;;;;;17.55;4.40;;;;;;;;;;5051865;28;20076;-81
2024/02/01 09:36:18;;;;;;;26.08;5.20;;;;;;;;;;5051687;28;20029;-81
2024/02/01 09:38:44;;;;;;;21.55;4.35;;;;;;;;;;5051661;28;20029;-81
2024/02/01 09:41:20;;;;;;;18.50;3.53;;;;;;;;;;5052514;28;20025;-80
2024/02/01 09:43:50;;;;;;;17.02;3.75;;;;;;;;;;5051476;28;20120;-81
2024/02/01 09:46:20;;;;;;;16.00;4.30;;;;;;;;;;5051148;28;20049;-81
2024/02/01 09:48:47;;;;;;;18.10;3.70;;;;;;;;;;5051782;28;20021;-81
2024/02/01 09:51:19;;;;;;;18.08;4.72;;;;;;;;;;5051019;28;20017;-81
2024/02/01 09:53:51;;;;;;;21.50;5.43;;;;;;;;;;5051276;28;20025;-81
2024/02/01 09:56:18;;;;;;;18.52;3.75;;;;;;;;;;5051197;28;20146;-81
2024/02/01 09:58:44;;;;;;;27.02;5.22;;;;;;;;;;5051293;28;20125;-81
2024/02/01 10:01:11;;;;;;;29.77;5.07;;;;;;;;;;5051066;28;20029;-81
2024/02/01 10:03:45;;;;;;;23.27;5.18;;;;;;;;;;5051377;28;20025;-81
2024/02/01 10:06:11;;;;;;;28.23;4.82;;;;;;;;;;5050989;28;20036;-81
2024/02/01 10:08:38;;;;;;;20.98;5.25;;;;;;;;;;5051333;28;20029;-81
2024/02/01 10:11:04;;;;;;;19.10;5.03;;;;;;;;;;5050944;28;20031;-81
2024/02/01 10:13:34;;;;;;;15.30;4.70;;;;;;;;;;5051312;28;20025;-81
2024/02/01 10:16:00;;;;;;;22.48;5.35;;;;;;;;;;5050921;28;20120;-81
2024/02/01 10:18:26;;;;;;;21.00;5.05;;;;;;;;;;5052810;28;20028;-79
2024/02/01 10:20:53;;;;;;;21.52;4.68;;;;;;;;;;5063250;28;20120;-78
2024/02/01 10:23:20;;;;;;;21.42;4.70;;;;;;;;;;5070114;28;20029;-76
2024/02/01 10:25:47;;;;;;;17.58;4.47;;;;;;;;;;5070082;28;20048;-78
2024/02/01 10:28:17;;;;;;;17.55;4.40;;;;;;;;;;5058555;28;20027;-81
2024/02/01 10:30:43;;;;;;;20.92;5.18;;;;;;;;;;5053415;28;20060;-81
2024/02/01 10:33:13;;;;;;;19.33;5.13;;;;;;;;;;5050464;28;20025;-80
2024/02/01 10:35:40;;;;;;;19.65;5.10;;;;;;;;;;5050661;28;20033;-81
2024/02/01 10:38:13;;;;;;;17.65;3.15;;;;;;;;;;5050583;28;20021;-81
2024/02/01 10:40:52;;;;;;;16.83;4.05;;;;;;;;;;5050841;28;20029;-80
2024/02/01 10:43:19;;;;;;;25.85;4.93;;;;;;;;;;5052003;28;20047;-80
2024/02/01 10:45:48;;;;;;;22.35;4.68;;;;;;;;;;5050916;28;20026;-81
2024/02/01 10:48:14;;;;;;;23.50;4.72;;;;;;;;;;5050491;28;20037;-80
2024/02/01 10:50:40;;;;;;;20.60;4.22;;;;;;;;;;5052263;28;20033;-80
2024/02/01 10:53:08;;;;;;;28.88;5.93;;;;;;;;;;5054714;28;20033;-79
2024/02/01 10:55:38;;;;;;;21.85;5.57;;;;;;;;;;5055739;28;20082;-80
2024/02/01 10:58:04;;;;;;;27.30;5.07;;;;;;;;;;5054654;28;20460;-80
2024/02/01 11:00:31;;;;;;;21.08;4.95;;;;;;;;;;5054500;28;20040;-80
2024/02/01 11:03:04;;;;;;;20.85;4.55;;;;;;;;;;5054297;28;20032;-80
2024/02/01 11:05:31;;;;;;;25.70;4.75;;;;;;;;;;5055606;28;20021;-81
2024/02/01 11:07:58;;;;;;;18.95;3.70;;;;;;;;;;5054565;28;20524;-80
2024/02/01 11:10:26;;;;;;;19.00;4.80;;;;;;;;;;5054151;28;20028;-80
2024/02/01 11:12:54;;;;;;;31.42;8.45;;;;;;;;;;5054282;28;20035;-81
2024/02/01 11:15:23;;;;;;;21.88;5.45;;;;;;;;;;5054326;28;20491;-81
2024/02/01 11:17:49;;;;;;;22.23;4.15;;;;;;;;;;5054696;28;20032;-81
2024/02/01 11:20:19;;;;;;;24.80;7.25;;;;;;;;;;5054150;28;20025;-82
2024/02/01 11:22:45;;;;;;;46.33;17.98;;;;;;;;;;5055268;28;20031;-81
2024/02/01 11:25:12;;;;;;;20.27;5.95;;;;;;;;;;5054173;28;20043;-81
2024/02/01 11:27:38;;;;;;;28.33;9.80;;;;;;;;;;5053881;28;20028;-82
2024/02/01 11:30:38;;;;;;;24.60;6.95;;;;;;;;;;5053669;28;20024;-81
2024/02/01 11:32:57;;;;;;;31.67;7.65;;;;;;;;;;5055755;28;20293;-80
2024/02/01 11:35:23;;;;;;;24.20;5.45;;;;;;;;;;5054719;28;20091;-81
2024/02/01 11:38:02;;;;;;;23.35;6.63;;;;;;;;;;5053775;28;20025;-81
2024/02/01 11:40:28;;;;;;;22.90;4.63;;;;;;;;;;5053670;28;20068;-81
2024/02/01 11:42:58;;;;;;;22.02;4.95;;;;;;;;;;5053960;28;20021;-81
2024/02/01 11:45:24;;;;;;;25.10;5.22;;;;;;;;;;5053483;28;20548;-81
2024/02/01 11:47:53;;;;;;;21.45;4.50;;;;;;;;;;5055091;28;20103;-81
2024/02/01 11:50:19;;;;;;;24.40;4.43;;;;;;;;;;5053634;28;20024;-81
2024/02/01 11:52:56;;;;;;;22.23;5.07;;;;;;;;;;5053423;28;20024;-81
2024/02/01 11:55:27;;;;;;;16.52;3.58;;;;;;;;;;5053115;28;20055;-81
2024/02/01 11:57:57;;;;;;;18.98;5.07;;;;;;;;;;5053361;28;20500;-80
2024/02/01 12:00:23;;;;;;;;;;;;;;;;;;5055003;28;20511;-82
2024/02/01 12:02:49;;;;;;;17.33;4.45;;;;;;;;;;5053319;28;19976;-81
2024/02/01 12:05:20;;;;;;;25.10;5.07;;;;;;;;;;5053211;28;20036;-81
2024/02/01 12:07:47;;;;;;;28.27;8.30;;;;;;;;;;5053301;28;20067;-81
2024/02/01 12:10:15;;;;;;;22.73;4.35;;;;;;;;;;5054354;28;20031;-81
2024/02/01 12:12:42;;;;;;;25.15;4.78;;;;;;;;;;5053317;28;20025;-81
2024/02/01 12:15:09;;;;;;;22.08;5.40;;;;;;;;;;5053110;28;20545;-81
2024/02/01 12:17:42;;;;;;;24.65;5.82;;;;;;;;;;5053217;28;20043;-81
2024/02/01 12:20:08;;;;;;;17.30;4.55;;;;;;;;;;5053143;28;20025;-81
2024/02/01 12:22:34;;;;;;;15.05;3.10;;;;;;;;;;5036910;28;20029;-81
2024/02/01 12:25:01;;;;;;;19.00;3.80;;;;;;;;;;5053386;28;20026;-81
2024/02/01 12:27:27;;;;;;;19.40;4.85;;;;;;;;;;5052944;28;20039;-81
2024/02/01 12:29:53;;;;;;;23.30;3.88;;;;;;;;;;5054748;28;20082;-81
2024/02/01 12:32:19;;;;;;;18.67;3.90;;;;;;;;;;5053089;28;20033;-82
2024/02/01 12:34:45;;;;;;;18.55;3.95;;;;;;;;;;5053418;28;20025;-81
2024/02/01 12:37:12;;;;;;;23.08;5.07;;;;;;;;;;5055166;28;20021;-80
2024/02/01 12:39:40;;;;;;;30.05;5.68;;;;;;;;;;5066420;28;20056;-78
2024/02/01 12:42:07;;;;;;;20.42;4.78;;;;;;;;;;5068373;28;20017;-78
2024/02/01 12:44:34;;;;;;;15.98;3.83;;;;;;;;;;5067568;28;20032;-77
2024/02/01 12:47:06;;;;;;;21.10;4.90;;;;;;;;;;5054743;28;20029;-81
2024/02/01 12:49:32;;;;;;;19.65;4.53;;;;;;;;;;5052821;28;20090;-80
2024/02/01 12:52:04;;;;;;;23.23;5.55;;;;;;;;;;5052494;28;20044;-81
2024/02/01 12:54:33;;;;;;;22.13;4.93;;;;;;;;;;5052222;28;20021;-80
2024/02/01 12:57:00;;;;;;;25.38;5.10;;;;;;;;;;5052156;28;20033;-80
2024/02/01 12:59:26;;;;;;;14.90;4.13;;;;;;;;;;5051714;28;20393;-81
2024/02/01 13:01:53;;;;;;;18.27;4.65;;;;;;;;;;5052310;28;20017;-81
2024/02/01 13:04:21;;;;;;;26.58;5.35;;;;;;;;;;5051694;28;20131;-81
2024/02/01 13:06:48;;;;;;;17.15;3.95;;;;;;;;;;5052111;28;20048;-81
2024/02/01 13:09:28;;;;;;;26.60;4.90;;;;;;;;;;5053229;28;20017;-80
2024/02/01 13:11:54;;;;;;;;;;;;;;;;;;5052180;28;20063;-80
2024/02/01 13:14:20;;;;;;;18.83;3.25;;;;;;;;;;5051101;28;19905;-80
2024/02/01 13:16:47;;;;;;;23.00;4.43;;;;;;;;;;5051713;28;20040;-80
2024/02/01 13:19:13;;;;;;;23.10;4.88;;;;;;;;;;5051450;28;20017;-79
2024/02/01 13:21:39;;;;;;;17.95;3.78;;;;;;;;;;5051627;28;20025;-80
2024/02/01 13:24:06;;;;;;;35.90;6.88;;;;;;;;;;5051717;28;20116;-81
2024/02/01 13:26:35;;;;;;;29.33;4.88;;;;;;;;;;5051571;28;20021;-80
2024/02/01 13:29:01;;;;;;;13.67;2.87;;;;;;;;;;5051696;28;20101;-79
2024/02/01 13:31:27;;;;;;;21.52;3.65;;;;;;;;;;5051440;28;20095;-79
2024/02/01 13:33:59;;;;;;;22.92;3.97;;;;;;;;;;5051732;28;20032;-79
2024/02/01 13:36:25;;;;;;;29.30;5.60;;;;;;;;;;5052612;28;20048;-80
2024/02/01 13:38:52;;;;;;;19.55;4.78;;;;;;;;;;5051483;28;20017;-80
2024/02/01 13:41:18;;;;;;;30.77;4.43;;;;;;;;;;5051314;28;20020;-79
2024/02/01 13:43:44;;;;;;;14.65;4.32;;;;;;;;;;5051395;28;20017;-80
2024/02/01 13:46:11;;;;;;;27.90;5.25;;;;;;;;;;5051253;28;20033;-80
2024/02/01 13:48:37;;;;;;;13.95;2.95;;;;;;;;;;5051490;28;20021;-80
2024/02/01 13:51:03;;;;;;;16.38;3.63;;;;;;;;;;5051639;28;20023;-79
2024/02/01 13:53:29;;;;;;;18.35;3.85;;;;;;;;;;5052305;28;20043;-80
2024/02/01 13:55:55;;;;;;;19.10;4.30;;;;;;;;;;5051264;28;20033;-81
2024/02/01 13:58:21;;;;;;;18.73;4.82;;;;;;;;;;5052558;28;20075;-80
2024/02/01 14:00:48;;;;;;;22.13;4.30;;;;;;;;;;5051243;28;20471;-81
2024/02/01 14:03:14;;;;;;;25.63;5.30;;;;;;;;;;5051009;28;20457;-81
2024/02/01 14:05:40;;;;;;;23.42;4.00;;;;;;;;;;5050807;28;20025;-80
2024/02/01 14:08:08;;;;;;;23.25;5.22;;;;;;;;;;5050726;28;20045;-81
2024/02/01 14:10:34;;;;;;;22.50;4.43;;;;;;;;;;5050878;28;20124;-80
2024/02/01 14:13:00;;;;;;;20.10;4.45;;;;;;;;;;5052270;28;20029;-81
2024/02/01 14:15:26;;;;;;;21.38;4.45;;;;;;;;;;5050640;28;20093;-80
2024/02/01 14:17:52;;;;;;;20.73;4.95;;;;;;;;;;5052698;28;20075;-80
2024/02/01 14:20:19;;;;;;;22.23;4.03;;;;;;;;;;5050793;28;20318;-80
2024/02/01 14:22:45;;;;;;;23.60;4.50;;;;;;;;;;5050773;28;20025;-80
2024/02/01 14:25:12;;;;;;;16.27;3.78;;;;;;;;;;5049712;28;20534;-81
2024/02/01 14:27:38;;;;;;;12.60;3.15;;;;;;;;;;5050895;28;20376;-80
2024/02/01 14:30:09;;;;;;;17.77;4.25;;;;;;;;;;5050672;28;20120;-80
2024/02/01 14:32:35;;;;;;;24.35;5.85;;;;;;;;;;5050491;28;20059;-80
2024/02/01 14:35:01;;;;;;;13.55;3.65;;;;;;;;;;5050828;28;20021;-80
2024/02/01 14:37:28;;;;;;;15.80;3.08;;;;;;;;;;5050554;28;20025;-81
2024/02/01 14:39:54;;;;;;;27.25;5.05;;;;;;;;;;5050934;28;20380;-81
2024/02/01 14:42:20;;;;;;;23.80;8.13;;;;;;;;;;5050673;28;20021;-81
2024/02/01 14:44:46;;;;;;;20.25;4.75;;;;;;;;;;5050971;28;20047;-80
2024/02/01 14:47:12;;;;;;;26.63;5.22;;;;;;;;;;5050397;28;20025;-80
2024/02/01 14:49:38;;;;;;;22.67;4.35;;;;;;;;;;5050583;28;20025;-81
2024/02/01 14:52:04;;;;;;;24.13;4.45;;;;;;;;;;5050686;28;20091;-80
2024/02/01 14:54:30;;;;;;;18.52;4.65;;;;;;;;;;5051366;28;20104;-79
2024/02/01 14:56:56;;;;;;;25.55;5.70;;;;;;;;;;5057149;28;20021;-78
2024/02/01 14:59:23;;;;;;;25.75;4.80;;;;;;;;;;5059557;28;20037;-78
2024/02/01 15:01:49;;;;;;;20.70;4.47;;;;;;;;;;5059687;28;20515;-78
2024/02/01 15:04:15;;;;;;;13.10;3.50;;;;;;;;;;5052648;28;20036;-80
2024/02/01 15:06:42;;;;;;;19.55;5.10;;;;;;;;;;5050400;28;20472;-80
2024/02/01 15:09:12;;;;;;;12.13;3.38;;;;;;;;;;5050912;28;20056;-80
2024/02/01 15:11:39;;;;;;;29.48;4.93;;;;;;;;;;5050231;28;20033;-80
2024/02/01 15:14:05;;;;;;;25.05;4.55;;;;;;;;;;5050443;28;20021;-81
2024/02/01 15:16:32;;;;;;;22.73;4.32;;;;;;;;;;5049929;28;20021;-80
2024/02/01 15:19:01;;;;;;;19.92;4.28;;;;;;;;;;5050480;28;20473;-81